Time;durP1;ratioP1;P1;durP2;ratioP2;P2;SDS_P1;SDS_P2;PMS_P1;PMS_P2;Temp;Humidity;BMP_temperature;BMP_pressure;BME280_temperature;BME280_humidity;BME280_pressure;Samples;Min_cycle;Max_cycle;Signal;HPM_P1;HPM_P2
2023/05/03 00:01:51;;;;;;;6.75;3.60;;;4.40;99.90;;;;;;7370687;19;20029;-59
2023/05/03 00:04:17;;;;;;;7.63;3.75;;;4.30;99.90;;;;;;7362081;19;20024;-65
2023/05/03 00:06:44;;;;;;;7.68;4.05;;;4.30;99.90;;;;;;7366457;19;20030;-65
2023/05/03 00:09:10;;;;;;;9.25;3.83;;;4.20;99.90;;;;;;7369019;19;20775;-59
2023/05/03 00:11:36;;;;;;;8.40;3.92;;;4.20;99.90;;;;;;7368501;19;20577;-60
2023/05/03 00:14:03;;;;;;;7.18;3.75;;;4.20;99.90;;;;;;7368925;19;20018;-59
2023/05/03 00:16:29;;;;;;;6.93;3.80;;;4.10;99.90;;;;;;7372614;19;20033;-59
2023/05/03 00:18:56;;;;;;;7.85;3.85;;;4.00;99.90;;;;;;7372083;19;20054;-59
2023/05/03 00:21:25;;;;;;;5.70;3.53;;;4.00;99.90;;;;;;7373007;19;20073;-65
2023/05/03 00:23:52;;;;;;;7.97;3.58;;;4.00;99.90;;;;;;7368900;19;20022;-65
2023/05/03 00:26:18;;;;;;;7.38;4.10;;;4.00;99.90;;;;;;7369710;19;20049;-66
2023/05/03 00:28:45;;;;;;;6.43;3.97;;;4.00;99.90;;;;;;7368052;19;20861;-65
2023/05/03 00:31:12;;;;;;;6.43;3.95;;;4.00;99.90;;;;;;7369756;19;20050;-65
2023/05/03 00:33:39;;;;;;;7.88;4.55;;;3.90;99.90;;;;;;7370005;19;20793;-59
2023/05/03 00:36:10;;;;;;;8.07;4.22;;;3.90;99.90;;;;;;7367840;19;20733;-64
2023/05/03 00:38:37;;;;;;;8.15;3.65;;;3.90;99.90;;;;;;7369102;19;20041;-59
2023/05/03 00:41:03;;;;;;;7.70;4.22;;;4.00;99.90;;;;;;7368711;19;20034;-59
2023/05/03 00:43:33;;;;;;;9.48;3.75;;;4.00;99.90;;;;;;7369534;19;20018;-59
2023/05/03 00:46:02;;;;;;;7.30;4.10;;;4.00;99.90;;;;;;7368253;19;21426;-59
2023/05/03 00:48:28;;;;;;;6.63;4.38;;;4.00;99.90;;;;;;7366502;19;20608;-59
2023/05/03 00:50:57;;;;;;;7.38;4.38;;;4.00;99.90;;;;;;7365015;19;20010;-66
2023/05/03 00:53:24;;;;;;;7.80;3.97;;;4.10;99.90;;;;;;7364310;19;20029;-60
2023/05/03 00:55:52;;;;;;;11.10;3.95;;;4.10;99.90;;;;;;7367279;19;20026;-66
2023/05/03 00:58:20;;;;;;;12.15;4.55;;;4.20;99.90;;;;;;7364208;19;20025;-65
2023/05/03 01:00:49;;;;;;;7.75;4.03;;;4.20;99.90;;;;;;7368290;19;20014;-65
2023/05/03 01:03:16;;;;;;;6.18;4.82;;;4.20;99.90;;;;;;7364896;19;20466;-59
2023/05/03 01:05:59;;;;;;;5.93;4.10;;;4.20;99.90;;;;;;7367298;19;20045;-60
2023/05/03 01:08:37;;;;;;;5.47;4.03;;;4.30;99.90;;;;;;7370119;19;20031;-59
2023/05/03 01:11:11;;;;;;;5.85;4.32;;;4.30;99.90;;;;;;7370557;19;20031;-66
2023/05/03 01:14:09;;;;;;;8.52;4.30;;;4.40;99.90;;;;;;7367080;19;20033;-64
2023/05/03 01:17:04;;;;;;;6.10;4.18;;;4.50;99.90;;;;;;7370839;19;20489;-65
2023/05/03 01:19:37;;;;;;;6.55;4.40;;;4.60;99.90;;;;;;7368253;19;20757;-65
2023/05/03 01:22:15;;;;;;;6.28;4.15;;;4.70;99.90;;;;;;7374181;19;20033;-65
2023/05/03 01:24:48;;;;;;;7.18;4.25;;;4.70;99.90;;;;;;7375608;19;20015;-59
2023/05/03 01:27:14;;;;;;;8.88;4.47;;;4.80;99.90;;;;;;7373648;19;20481;-60
2023/05/03 01:29:42;;;;;;;6.15;3.97;;;4.80;99.90;;;;;;7375944;19;20014;-60
2023/05/03 01:32:17;;;;;;;8.90;4.50;;;4.90;99.90;;;;;;7373796;19;20029;-59
2023/05/03 01:34:52;;;;;;;8.68;5.07;;;5.00;99.90;;;;;;7375178;19;20502;-60
2023/05/03 01:37:19;;;;;;;7.47;4.57;;;5.10;99.90;;;;;;7377389;19;20125;-59
2023/05/03 01:39:53;;;;;;;8.63;4.55;;;5.20;99.90;;;;;;7377212;19;20024;-59
2023/05/03 01:42:20;;;;;;;7.75;4.18;;;5.20;99.90;;;;;;7376011;19;20022;-59
2023/05/03 01:44:48;;;;;;;8.82;4.22;;;5.30;99.90;;;;;;7375917;19;20058;-59
2023/05/03 01:47:14;;;;;;;8.45;3.95;;;5.30;99.90;;;;;;7375705;19;20031;-60
2023/05/03 01:49:41;;;;;;;8.15;4.22;;;5.30;99.90;;;;;;7372236;19;20018;-59
2023/05/03 01:52:07;;;;;;;7.03;4.43;;;5.30;99.90;;;;;;7372373;19;20038;-65
2023/05/03 01:54:33;;;;;;;8.50;4.10;;;5.30;99.90;;;;;;7372543;19;20107;-65
2023/05/03 01:57:00;;;;;;;5.72;4.00;;;5.20;99.90;;;;;;7372444;19;20025;-65
2023/05/03 01:59:26;;;;;;;7.90;4.28;;;5.20;99.90;;;;;;7369693;19;20029;-65
2023/05/03 02:01:52;;;;;;;8.27;3.75;;;5.10;99.90;;;;;;7374680;19;20462;-59
2023/05/03 02:04:19;;;;;;;5.55;3.83;;;5.10;99.90;;;;;;7370546;19;20912;-59
2023/05/03 02:06:45;;;;;;;6.60;3.95;;;5.10;99.90;;;;;;7372057;19;20710;-65
2023/05/03 02:09:11;;;;;;;6.20;3.78;;;5.10;99.90;;;;;;7372885;19;20026;-65
2023/05/03 02:11:38;;;;;;;7.05;4.38;;;5.10;99.90;;;;;;7374696;19;20029;-65
2023/05/03 02:14:04;;;;;;;11.02;4.72;;;5.00;99.90;;;;;;7373233;19;20086;-59
2023/05/03 02:16:30;;;;;;;8.50;4.30;;;5.00;99.90;;;;;;7373053;19;20398;-59
2023/05/03 02:18:58;;;;;;;6.15;4.35;;;4.80;99.90;;;;;;7371808;19;20086;-59
2023/05/03 02:21:25;;;;;;;7.22;4.93;;;4.80;99.90;;;;;;7376925;19;20030;-59
2023/05/03 02:23:53;;;;;;;7.75;5.00;;;4.80;99.90;;;;;;7375932;19;20014;-59
2023/05/03 02:26:21;;;;;;;8.23;4.78;;;4.80;99.90;;;;;;7373634;19;20026;-65
2023/05/03 02:28:47;;;;;;;5.95;4.22;;;4.70;99.90;;;;;;7366768;19;20039;-65
2023/05/03 02:31:14;;;;;;;7.20;4.20;;;4.60;99.90;;;;;;7372937;19;20452;-64
2023/05/03 02:33:42;;;;;;;8.15;4.20;;;4.50;99.90;;;;;;7374483;19;20018;-59
2023/05/03 02:36:08;;;;;;;6.25;4.78;;;4.50;99.90;;;;;;7371053;19;20017;-59
2023/05/03 02:38:34;;;;;;;9.23;4.38;;;4.40;99.90;;;;;;7374421;19;20073;-59
2023/05/03 02:41:01;;;;;;;8.43;4.30;;;4.30;99.90;;;;;;7371335;19;20033;-60
2023/05/03 02:43:27;;;;;;;6.40;4.45;;;4.30;99.90;;;;;;7370746;19;20007;-59
2023/05/03 02:45:53;;;;;;;8.93;4.75;;;4.20;99.90;;;;;;7371132;19;20019;-59
2023/05/03 02:48:20;;;;;;;7.70;5.20;;;4.20;99.90;;;;;;7372803;19;20114;-60
2023/05/03 02:50:46;;;;;;;8.45;4.75;;;4.20;99.90;;;;;;7371065;19;20422;-59
2023/05/03 02:53:12;;;;;;;7.50;4.32;;;4.10;99.90;;;;;;7374252;19;20767;-60
2023/05/03 02:55:39;;;;;;;7.43;4.68;;;4.10;99.90;;;;;;7368420;19;20024;-59
2023/05/03 02:58:06;;;;;;;6.72;4.85;;;4.00;99.90;;;;;;7369981;19;20355;-59
2023/05/03 03:00:33;;;;;;;6.10;4.60;;;4.00;99.90;;;;;;7370236;19;20019;-59
2023/05/03 03:02:59;;;;;;;7.82;4.75;;;4.00;99.90;;;;;;7368936;19;20025;-66
2023/05/03 03:05:26;;;;;;;8.85;4.80;;;4.00;99.90;;;;;;7368072;19;20026;-66
2023/05/03 03:07:53;;;;;;;8.05;4.82;;;3.90;99.90;;;;;;7369694;19;20026;-66
2023/05/03 03:10:20;;;;;;;5.32;4.30;;;3.90;99.90;;;;;;7369022;19;20018;-66
2023/05/03 03:12:47;;;;;;;7.88;4.78;;;3.90;99.90;;;;;;7362022;19;20022;-65
2023/05/03 03:15:22;;;;;;;8.70;4.55;;;3.80;99.90;;;;;;7361842;19;20021;-59
2023/05/03 03:17:50;;;;;;;5.97;4.57;;;3.70;99.90;;;;;;7365304;19;20023;-59
2023/05/03 03:20:17;;;;;;;8.90;5.05;;;3.70;99.90;;;;;;7369510;19;20762;-59
2023/05/03 03:22:46;;;;;;;8.82;5.25;;;3.70;99.90;;;;;;7371082;19;20025;-59
2023/05/03 03:25:13;;;;;;;5.45;4.75;;;3.60;99.90;;;;;;7371070;19;20018;-60
2023/05/03 03:27:39;;;;;;;8.70;5.03;;;3.60;99.90;;;;;;7371486;19;20663;-60
2023/05/03 03:30:07;;;;;;;9.90;5.05;;;3.50;99.90;;;;;;7368494;19;20025;-60
2023/05/03 03:32:36;;;;;;;9.27;5.18;;;3.50;99.90;;;;;;7370594;19;20028;-59
2023/05/03 03:35:07;;;;;;;7.28;4.97;;;3.40;99.90;;;;;;7367741;19;20018;-66
2023/05/03 03:37:33;;;;;;;7.38;4.70;;;3.40;99.90;;;;;;7370311;19;20017;-59
2023/05/03 03:39:59;;;;;;;9.45;5.00;;;3.40;99.90;;;;;;7371878;19;20014;-60
2023/05/03 03:42:26;;;;;;;5.65;4.72;;;3.30;99.90;;;;;;7373472;19;20098;-59
2023/05/03 03:44:52;;;;;;;9.45;5.22;;;3.10;99.90;;;;;;7368654;19;20022;-59
2023/05/03 03:47:19;;;;;;;7.88;4.90;;;3.10;99.90;;;;;;7369561;19;20026;-66
2023/05/03 03:49:45;;;;;;;6.82;5.35;;;3.10;99.90;;;;;;7361914;19;20506;-65
2023/05/03 03:52:11;;;;;;;8.57;5.30;;;3.10;99.90;;;;;;7366976;19;20010;-65
2023/05/03 03:54:37;;;;;;;9.27;5.28;;;3.10;99.90;;;;;;7369281;19;20019;-59
2023/05/03 03:57:03;;;;;;;8.63;5.35;;;3.10;99.90;;;;;;7362960;19;20022;-60
2023/05/03 03:59:31;;;;;;;9.75;5.60;;;3.10;99.90;;;;;;7368417;19;20018;-59
2023/05/03 04:01:58;;;;;;;7.53;5.43;;;3.00;99.90;;;;;;7369044;19;20011;-59
2023/05/03 04:04:25;;;;;;;6.90;5.15;;;3.00;99.90;;;;;;7368303;19;20014;-59
2023/05/03 04:06:53;;;;;;;10.35;5.68;;;3.00;99.90;;;;;;7370620;19;20056;-59
2023/05/03 04:09:20;;;;;;;7.97;5.32;;;3.00;99.90;;;;;;7364813;19;20544;-59
2023/05/03 04:11:46;;;;;;;8.23;5.28;;;3.00;99.90;;;;;;7371348;19;20018;-59
2023/05/03 04:14:13;;;;;;;7.50;5.15;;;3.00;99.90;;;;;;7369209;19;20085;-59
2023/05/03 04:16:40;;;;;;;8.60;5.70;;;3.00;99.90;;;;;;7361658;19;20014;-59
2023/05/03 04:19:07;;;;;;;8.55;5.30;;;3.00;99.90;;;;;;7366336;19;20022;-65
2023/05/03 04:21:36;;;;;;;7.78;5.25;;;3.00;99.90;;;;;;7365110;19;20022;-66
2023/05/03 04:24:04;;;;;;;6.53;5.38;;;3.00;99.90;;;;;;7363709;19;20030;-65
2023/05/03 04:26:32;;;;;;;8.32;5.45;;;3.00;99.90;;;;;;7359304;19;20026;-66
2023/05/03 04:29:06;;;;;;;11.98;5.53;;;3.00;99.90;;;;;;7363758;19;20672;-66
2023/05/03 04:31:34;;;;;;;8.65;5.65;;;3.00;99.90;;;;;;7364106;19;20018;-59
2023/05/03 04:34:01;;;;;;;8.77;5.50;;;3.00;99.90;;;;;;7364691;19;20086;-59
2023/05/03 04:36:28;;;;;;;9.73;6.32;;;3.10;99.90;;;;;;7365774;19;20556;-59
2023/05/03 04:38:56;;;;;;;8.45;6.35;;;3.20;99.90;;;;;;7357591;19;20015;-59
2023/05/03 04:41:24;;;;;;;10.93;6.72;;;3.30;99.90;;;;;;7365196;19;20458;-59
2023/05/03 04:43:51;;;;;;;12.63;6.25;;;3.30;99.90;;;;;;7365448;19;20028;-59
2023/05/03 04:46:17;;;;;;;9.93;6.65;;;3.30;99.90;;;;;;7366506;19;20022;-59
2023/05/03 04:48:45;;;;;;;8.20;6.60;;;3.30;99.90;;;;;;7366953;19;20018;-59
2023/05/03 04:51:12;;;;;;;11.07;6.50;;;3.40;99.90;;;;;;7365737;19;20027;-59
2023/05/03 04:53:39;;;;;;;9.27;6.18;;;3.50;99.90;;;;;;7366204;19;20019;-59
2023/05/03 04:56:11;;;;;;;10.45;6.90;;;3.50;99.90;;;;;;7366862;19;20607;-60
2023/05/03 04:58:39;;;;;;;8.88;6.40;;;3.60;99.90;;;;;;7368854;19;20104;-59
2023/05/03 05:01:07;;;;;;;8.63;6.13;;;3.70;99.90;;;;;;7366520;19;20480;-64
2023/05/03 05:03:33;;;;;;;8.65;6.45;;;3.70;99.90;;;;;;7361726;19;20022;-64
2023/05/03 05:06:05;;;;;;;9.27;6.82;;;3.80;99.90;;;;;;7370406;19;20581;-64
2023/05/03 05:08:32;;;;;;;13.98;6.15;;;3.80;99.90;;;;;;7373570;19;20022;-64
2023/05/03 05:11:03;;;;;;;10.88;7.05;;;3.80;99.90;;;;;;7367682;19;20026;-64
2023/05/03 05:13:31;;;;;;;8.13;5.70;;;3.90;99.90;;;;;;7370440;19;20015;-64
2023/05/03 05:15:57;;;;;;;7.75;6.15;;;4.00;99.90;;;;;;7374625;19;20026;-64
2023/05/03 05:18:23;;;;;;;8.35;6.10;;;4.10;99.90;;;;;;7367846;19;20026;-64
2023/05/03 05:20:52;;;;;;;9.65;7.05;;;4.20;99.90;;;;;;7371167;19;20866;-64
2023/05/03 05:23:19;;;;;;;9.73;6.18;;;4.40;99.90;;;;;;7366565;19;20014;-64
2023/05/03 05:25:47;;;;;;;10.68;6.00;;;4.50;99.90;;;;;;7371431;19;20101;-60
2023/05/03 05:28:14;;;;;;;9.93;6.15;;;4.70;99.90;;;;;;7371770;19;20023;-64
2023/05/03 05:30:40;;;;;;;13.60;6.60;;;4.80;99.90;;;;;;7366397;19;20019;-64
2023/05/03 05:33:07;;;;;;;11.43;6.30;;;5.00;99.90;;;;;;7370747;19;20024;-64
2023/05/03 05:35:34;;;;;;;10.93;7.10;;;5.10;99.90;;;;;;7367862;19;20020;-60
2023/05/03 05:38:00;;;;;;;9.20;6.70;;;5.20;99.90;;;;;;7364994;19;20019;-64
2023/05/03 05:40:28;;;;;;;11.20;6.72;;;5.40;99.90;;;;;;7358391;19;21622;-63
2023/05/03 05:42:56;;;;;;;9.75;6.55;;;5.60;99.90;;;;;;7368515;19;20675;-64
2023/05/03 05:45:24;;;;;;;12.38;7.00;;;5.70;99.90;;;;;;7370155;19;20026;-64
2023/05/03 05:47:52;;;;;;;9.52;5.95;;;5.90;99.90;;;;;;7373995;19;20018;-64
2023/05/03 05:50:18;;;;;;;8.65;5.63;;;6.10;99.90;;;;;;7362809;19;20126;-64
2023/05/03 05:52:51;;;;;;;6.93;5.03;;;6.30;99.90;;;;;;7371180;19;20183;-64
2023/05/03 05:55:19;;;;;;;8.65;4.57;;;6.50;99.90;;;;;;7369042;19;21825;-64
2023/05/03 05:57:46;;;;;;;6.90;4.30;;;6.60;99.90;;;;;;7375807;19;20626;-64
2023/05/03 06:00:14;;;;;;;10.65;4.45;;;6.70;99.90;;;;;;7366916;19;20025;-63
2023/05/03 06:02:43;;;;;;;7.50;4.38;;;6.90;99.90;;;;;;7371805;19;20046;-64
2023/05/03 06:05:13;;;;;;;6.78;4.10;;;7.00;99.90;;;;;;7368002;19;20026;-64
2023/05/03 06:07:39;;;;;;;6.63;4.30;;;7.10;99.90;;;;;;7372505;19;20031;-64
2023/05/03 06:10:06;;;;;;;8.88;4.13;;;7.30;99.90;;;;;;7367310;19;20412;-64
2023/05/03 06:12:33;;;;;;;7.93;4.60;;;7.40;99.90;;;;;;7370680;19;20058;-64
2023/05/03 06:15:00;;;;;;;7.30;3.83;;;7.60;99.90;;;;;;7369507;19;20501;-65
2023/05/03 06:17:27;;;;;;;8.95;3.72;;;7.70;99.90;;;;;;7371495;19;20090;-64
2023/05/03 06:19:53;;;;;;;7.20;3.75;;;7.80;99.90;;;;;;7370399;19;20018;-64
2023/05/03 06:22:19;;;;;;;6.80;3.50;;;7.90;99.90;;;;;;7365128;19;20022;-64
2023/05/03 06:24:48;;;;;;;6.70;3.63;;;8.10;99.90;;;;;;7368231;19;20030;-64
2023/05/03 06:27:15;;;;;;;6.30;3.20;;;8.20;99.90;;;;;;7364366;19;20025;-64
2023/05/03 06:29:43;;;;;;;4.43;2.80;;;8.50;99.90;;;;;;7364074;19;20022;-65
2023/05/03 06:32:09;;;;;;;37.45;27.05;;;8.60;99.90;;;;;;7364662;19;20035;-60
2023/05/03 06:34:37;;;;;;;5.15;2.60;;;8.80;99.90;;;;;;7369585;19;20086;-62
2023/05/03 06:37:05;;;;;;;8.73;2.95;;;9.00;99.90;;;;;;7367673;19;20015;-62
2023/05/03 06:39:31;;;;;;;5.82;2.70;;;9.20;99.90;;;;;;7370020;19;20397;-61
2023/05/03 06:41:57;;;;;;;7.47;2.80;;;9.30;99.90;;;;;;7368751;19;21165;-61
2023/05/03 06:44:32;;;;;;;5.63;2.60;;;9.40;99.90;;;;;;7369492;19;20082;-61
2023/05/03 06:46:59;;;;;;;7.10;2.67;;;9.50;99.90;;;;;;7371283;19;20800;-64
2023/05/03 06:49:25;;;;;;;6.47;2.92;;;9.60;99.90;;;;;;7366882;19;20015;-64
2023/05/03 06:51:52;;;;;;;4.45;2.13;;;9.80;99.90;;;;;;7370129;19;20038;-64
2023/05/03 06:54:19;;;;;;;6.80;2.65;;;9.90;99.90;;;;;;7368502;19;20021;-62
2023/05/03 06:56:45;;;;;;;5.97;2.25;;;10.00;99.90;;;;;;7366369;19;20022;-64
2023/05/03 06:59:12;;;;;;;7.63;2.67;;;10.20;99.90;;;;;;7364570;19;20215;-64
2023/05/03 07:01:38;;;;;;;3.88;2.33;;;10.10;99.90;;;;;;7368533;19;20018;-61
2023/05/03 07:04:04;;;;;;;5.03;2.53;;;10.30;99.90;;;;;;7368894;19;20964;-61
2023/05/03 07:06:31;;;;;;;6.47;2.22;;;10.40;99.90;;;;;;7366167;19;20022;-61
2023/05/03 07:08:57;;;;;;;3.90;1.65;;;10.60;99.90;;;;;;7369931;19;20020;-61
2023/05/03 07:11:23;;;;;;;3.30;1.65;;;10.70;99.90;;;;;;7371105;19;20350;-61
2023/05/03 07:13:51;;;;;;;6.45;2.50;;;10.70;99.90;;;;;;7373631;19;20094;-62
2023/05/03 07:16:18;;;;;;;3.05;1.77;;;11.00;99.90;;;;;;7366307;19;20054;-61
2023/05/03 07:18:46;;;;;;;4.30;1.45;;;11.20;99.90;;;;;;7369452;19;20415;-64
2023/05/03 07:21:14;;;;;;;6.43;4.43;;;11.30;99.90;;;;;;7365541;19;20017;-65
2023/05/03 07:23:40;;;;;;;7.47;3.10;;;11.20;99.90;;;;;;7371436;19;20018;-64
2023/05/03 07:26:07;;;;;;;3.67;1.60;;;11.20;99.90;;;;;;7367458;19;20025;-64
2023/05/03 07:28:33;;;;;;;2.25;0.90;;;11.20;99.90;;;;;;7370256;19;20376;-64
2023/05/03 07:31:00;;;;;;;4.78;1.98;;;10.90;99.90;;;;;;7361738;19;21920;-64
2023/05/03 07:33:27;;;;;;;3.95;1.30;;;11.00;99.90;;;;;;7362192;19;20015;-64
2023/05/03 07:35:53;;;;;;;3.72;1.60;;;11.00;99.90;;;;;;7367280;19;20050;-63
2023/05/03 07:38:20;;;;;;;2.42;1.02;;;10.80;99.90;;;;;;7369816;19;20018;-62
2023/05/03 07:40:47;;;;;;;3.42;1.02;;;10.80;99.90;;;;;;7367115;19;20014;-61
2023/05/03 07:43:15;;;;;;;4.30;1.25;;;10.90;99.90;;;;;;7365217;19;20769;-61
2023/05/03 07:45:41;;;;;;;3.33;1.27;;;10.90;99.90;;;;;;7364254;19;20022;-61
2023/05/03 07:48:08;;;;;;;3.67;1.10;;;11.20;99.90;;;;;;7365860;19;20018;-60
2023/05/03 07:50:34;;;;;;;3.10;1.00;;;11.00;99.90;;;;;;7363510;19;20850;-62
2023/05/03 07:53:00;;;;;;;27.58;21.00;;;10.90;99.90;;;;;;7365577;19;20019;-63
2023/05/03 07:55:28;;;;;;;6.40;1.73;;;11.00;99.90;;;;;;7368455;19;20117;-64
2023/05/03 07:57:58;;;;;;;3.67;1.50;;;10.80;99.90;;;;;;7368072;19;20015;-64
2023/05/03 08:00:26;;;;;;;5.05;1.40;;;11.00;99.90;;;;;;7366569;19;20018;-63
2023/05/03 08:02:52;;;;;;;3.25;1.25;;;11.50;99.90;;;;;;7367706;19;20018;-64
2023/05/03 08:05:19;;;;;;;6.70;1.42;;;12.20;99.90;;;;;;7368184;19;20014;-64
2023/05/03 08:07:46;;;;;;;2.35;1.48;;;12.80;85.70;;;;;;7369376;19;20010;-63
2023/05/03 08:10:15;;;;;;;3.50;1.10;;;13.20;81.70;;;;;;7365102;19;20494;-64
2023/05/03 08:12:42;;;;;;;5.55;1.15;;;13.70;79.00;;;;;;7363678;19;20507;-63
2023/05/03 08:15:09;;;;;;;3.95;1.40;;;13.90;71.40;;;;;;7365910;19;20006;-63
2023/05/03 08:17:43;;;;;;;3.45;1.15;;;14.00;72.20;;;;;;7370344;19;20781;-63
2023/05/03 08:20:11;;;;;;;3.35;1.20;;;14.20;68.50;;;;;;7364926;19;20736;-63
2023/05/03 08:22:39;;;;;;;6.13;1.20;;;13.90;63.90;;;;;;7363063;19;20654;-63
2023/05/03 08:25:06;;;;;;;3.92;1.13;;;14.50;66.80;;;;;;7361195;19;20018;-62
2023/05/03 08:27:33;;;;;;;3.67;1.10;;;15.20;65.20;;;;;;7368965;19;20018;-62
2023/05/03 08:30:00;;;;;;;4.45;2.42;;;15.20;60.80;;;;;;7368353;19;20121;-62
2023/05/03 08:32:27;;;;;;;3.40;1.40;;;16.10;63.50;;;;;;7361477;19;20054;-62
2023/05/03 08:34:54;;;;;;;7.88;4.10;;;16.50;61.70;;;;;;7364142;19;20469;-62
2023/05/03 08:37:21;;;;;;;8.90;4.97;;;16.60;61.60;;;;;;7361985;19;20019;-61
2023/05/03 08:39:50;;;;;;;7.70;4.03;;;16.60;60.20;;;;;;7365314;19;21465;-61
2023/05/03 08:42:16;;;;;;;11.48;8.82;;;16.20;57.20;;;;;;7367588;19;20019;-61
2023/05/03 08:44:48;;;;;;;6.05;3.55;;;15.60;59.00;;;;;;7368860;19;20018;-61
2023/05/03 08:47:18;;;;;;;3.80;1.40;;;15.10;59.60;;;;;;7366915;19;20023;-61
2023/05/03 08:49:44;;;;;;;4.72;1.42;;;14.80;59.70;;;;;;7365281;19;20041;-61
2023/05/03 08:52:13;;;;;;;5.75;2.35;;;14.10;59.90;;;;;;7366771;19;20023;-61
2023/05/03 08:54:40;;;;;;;5.85;1.30;;;14.00;61.80;;;;;;7366783;19;20014;-64
2023/05/03 08:57:12;;;;;;;4.85;1.92;;;13.90;62.40;;;;;;7369024;19;20041;-61
2023/05/03 09:00:00;;;;;;;4.95;1.98;;;13.60;62.30;;;;;;7367752;19;20019;-61
2023/05/03 09:02:27;;;;;;;5.15;1.90;;;13.80;62.10;;;;;;7366299;19;20022;-63
2023/05/03 09:04:55;;;;;;;3.50;1.35;;;13.70;62.80;;;;;;7369231;19;20030;-63
2023/05/03 09:07:21;;;;;;;7.43;3.03;;;13.70;62.60;;;;;;7368323;19;20014;-62
2023/05/03 09:09:48;;;;;;;4.78;2.40;;;13.30;63.40;;;;;;7364325;19;20035;-63
2023/05/03 09:12:33;;;;;;;7.90;1.60;;;13.20;63.80;;;;;;7364458;19;20078;-63
2023/05/03 09:15:01;;;;;;;5.90;3.63;;;13.40;64.20;;;;;;7361256;19;20675;-63
2023/05/03 09:17:28;;;;;;;4.43;1.92;;;13.30;64.50;;;;;;7369345;19;20026;-63
2023/05/03 09:19:56;;;;;;;7.95;3.45;;;13.20;65.10;;;;;;7362960;19;20027;-63
2023/05/03 09:22:29;;;;;;;8.73;3.40;;;13.40;65.90;;;;;;7366594;19;20500;-63
2023/05/03 09:24:58;;;;;;;13.02;9.10;;;13.50;65.00;;;;;;7363736;19;20010;-63
2023/05/03 09:27:26;;;;;;;6.53;2.55;;;13.60;65.20;;;;;;7367905;19;20026;-63
2023/05/03 09:29:53;;;;;;;11.77;7.38;;;14.70;64.90;;;;;;7365571;19;20018;-63
2023/05/03 09:32:21;;;;;;;8.90;5.97;;;15.70;65.10;;;;;;7363565;19;20018;-63
2023/05/03 09:34:48;;;;;;;10.13;1.58;;;16.10;59.50;;;;;;7361024;19;20017;-63
2023/05/03 09:37:14;;;;;;;10.15;5.75;;;16.30;59.60;;;;;;7368838;19;20765;-63
2023/05/03 09:39:42;;;;;;;3.88;1.70;;;16.10;59.60;;;;;;7365922;19;20022;-64
2023/05/03 09:42:14;;;;;;;3.85;1.80;;;16.40;59.10;;;;;;7370828;19;20011;-63
2023/05/03 09:44:47;;;;;;;4.97;1.80;;;17.10;56.40;;;;;;7373272;19;20812;-63
2023/05/03 09:47:14;;;;;;;3.55;1.35;;;17.40;56.00;;;;;;7373717;19;20010;-63
2023/05/03 09:49:42;;;;;;;3.85;1.58;;;18.10;56.20;;;;;;7370885;19;20078;-63
2023/05/03 09:52:10;;;;;;;3.90;1.67;;;18.00;54.80;;;;;;7373610;19;20147;-63
2023/05/03 09:54:37;;;;;;;9.68;5.60;;;17.40;54.10;;;;;;7373581;19;20023;-63
2023/05/03 09:57:05;;;;;;;6.88;2.45;;;17.10;54.20;;;;;;7374907;19;20015;-63
2023/05/03 09:59:32;;;;;;;5.68;2.13;;;16.70;55.20;;;;;;7373690;19;20018;-63
2023/05/03 10:02:06;;;;;;;3.30;1.50;;;16.20;55.30;;;;;;7373940;19;20469;-63
2023/05/03 10:04:43;;;;;;;5.32;3.38;;;16.00;55.10;;;;;;7368936;19;20014;-61
2023/05/03 10:07:16;;;;;;;5.47;3.67;;;16.10;56.10;;;;;;7372912;19;20019;-61
2023/05/03 10:09:47;;;;;;;4.25;1.60;;;16.00;55.70;;;;;;7372136;19;20022;-60
2023/05/03 10:12:20;;;;;;;5.63;2.00;;;15.50;54.70;;;;;;7374750;19;20015;-63
2023/05/03 10:14:48;;;;;;;6.47;1.80;;;15.10;55.30;;;;;;7372401;19;20039;-63
2023/05/03 10:17:42;;;;;;;6.82;2.47;;;15.20;57.30;;;;;;7374970;19;20094;-63
2023/05/03 10:20:31;;;;;;;3.17;1.75;;;15.20;57.00;;;;;;7373898;19;20509;-63
2023/05/03 10:23:04;;;;;;;7.68;3.40;;;15.00;56.90;;;;;;7375347;19;20067;-61
2023/05/03 10:25:31;;;;;;;5.10;2.85;;;14.90;57.90;;;;;;7374108;19;20717;-61
2023/05/03 10:28:05;;;;;;;5.13;1.67;;;14.60;58.10;;;;;;7372598;19;21042;-61
2023/05/03 10:30:33;;;;;;;2.78;1.73;;;14.60;57.70;;;;;;7368997;19;20022;-61
2023/05/03 10:33:20;;;;;;;6.60;3.00;;;15.20;58.80;;;;;;7372481;19;20018;-63
2023/05/03 10:35:51;;;;;;;6.57;3.88;;;15.60;56.70;;;;;;7373852;19;20035;-63
2023/05/03 10:38:26;;;;;;;8.98;5.78;;;15.70;57.00;;;;;;7372766;19;20592;-63
2023/05/03 10:40:54;;;;;;;4.93;1.80;;;15.30;56.50;;;;;;7373373;19;20006;-63
2023/05/03 10:43:30;;;;;;;9.90;6.68;;;15.60;56.40;;;;;;7373171;19;20369;-63
2023/05/03 10:46:01;;;;;;;7.35;3.88;;;16.50;56.30;;;;;;7366326;19;20022;-65
2023/05/03 10:48:28;;;;;;;61.30;53.67;;;17.00;56.10;;;;;;7372654;19;20019;-62
2023/05/03 10:50:55;;;;;;;6.45;1.60;;;17.80;54.50;;;;;;7368295;19;20033;-61
2023/05/03 10:53:34;;;;;;;5.72;1.60;;;17.70;53.00;;;;;;7375491;19;20030;-61
2023/05/03 10:56:07;;;;;;;6.82;3.63;;;18.10;51.50;;;;;;7374050;19;20045;-62
2023/05/03 10:58:47;;;;;;;6.38;4.75;;;18.70;53.90;;;;;;7374619;19;20037;-61
2023/05/03 11:01:17;;;;;;;4.60;1.40;;;18.40;51.60;;;;;;7375959;19;20019;-61
2023/05/03 11:03:56;;;;;;;6.53;3.30;;;17.60;51.20;;;;;;7373595;19;20023;-61
2023/05/03 11:06:33;;;;;;;3.85;1.45;;;18.20;51.00;;;;;;7369329;19;20030;-61
2023/05/03 11:09:00;;;;;;;6.65;3.50;;;18.10;49.80;;;;;;7370200;19;20030;-61
2023/05/03 11:11:26;;;;;;;4.28;1.60;;;18.70;52.00;;;;;;7369258;19;20019;-61
2023/05/03 11:13:53;;;;;;;6.50;3.08;;;18.70;49.50;;;;;;7373684;19;20042;-61
2023/05/03 11:16:20;;;;;;;4.30;1.52;;;19.20;50.90;;;;;;7370925;19;20015;-62
2023/05/03 11:18:47;;;;;;;5.15;1.92;;;19.20;49.70;;;;;;7373224;19;20481;-61
2023/05/03 11:21:17;;;;;;;7.70;5.50;;;19.10;49.40;;;;;;7369729;19;20023;-61
2023/05/03 11:23:44;;;;;;;4.15;1.58;;;19.50;48.90;;;;;;7371252;19;20019;-61
2023/05/03 11:26:10;;;;;;;4.85;1.48;;;18.80;48.40;;;;;;7373963;19;20046;-62
2023/05/03 11:28:38;;;;;;;6.13;1.58;;;19.60;47.90;;;;;;7372462;19;21477;-63
2023/05/03 11:31:05;;;;;;;4.65;1.45;;;19.40;47.60;;;;;;7370411;19;20383;-61
2023/05/03 11:33:34;;;;;;;4.55;1.30;;;18.70;47.70;;;;;;7370482;19;20521;-63
2023/05/03 11:36:02;;;;;;;3.88;1.70;;;19.00;48.00;;;;;;7370444;19;20522;-61
2023/05/03 11:38:33;;;;;;;6.05;1.92;;;18.70;48.80;;;;;;7372040;19;20053;-61
2023/05/03 11:41:00;;;;;;;4.43;1.80;;;18.90;47.40;;;;;;7372434;19;20049;-62
2023/05/03 11:43:27;;;;;;;6.95;1.98;;;19.30;48.70;;;;;;7368281;19;20826;-63
2023/05/03 11:45:57;;;;;;;3.65;1.80;;;19.50;49.10;;;;;;7372686;19;20022;-62
2023/05/03 11:48:26;;;;;;;4.78;1.33;;;19.20;47.20;;;;;;7366847;19;20019;-62
2023/05/03 11:50:56;;;;;;;4.22;1.48;;;18.90;47.00;;;;;;7369614;19;20099;-61
2023/05/03 11:53:24;;;;;;;4.05;1.60;;;19.10;47.60;;;;;;7369213;19;20502;-62
2023/05/03 11:55:53;;;;;;;5.07;1.60;;;19.60;47.80;;;;;;7369577;19;20018;-62
2023/05/03 11:58:24;;;;;;;4.28;1.30;;;19.30;47.00;;;;;;7370302;19;20038;-61
2023/05/03 12:00:52;;;;;;;4.93;2.30;;;19.10;46.60;;;;;;7371939;19;20018;-62
2023/05/03 12:03:31;;;;;;;5.68;1.83;;;19.60;47.80;;;;;;7368242;19;20247;-62
2023/05/03 12:05:58;;;;;;;7.90;4.90;;;19.20;47.30;;;;;;7367340;19;20807;-62
2023/05/03 12:08:32;;;;;;;6.05;3.33;;;19.50;48.20;;;;;;7371400;19;20027;-62
2023/05/03 12:10:59;;;;;;;5.93;2.72;;;19.60;47.70;;;;;;7370427;19;20018;-62
2023/05/03 12:13:35;;;;;;;2.75;1.50;;;20.30;47.60;;;;;;7365023;19;20018;-61
2023/05/03 12:16:04;;;;;;;4.90;2.70;;;20.40;45.40;;;;;;7366868;19;20038;-61
2023/05/03 12:18:48;;;;;;;2.95;1.73;;;20.20;46.10;;;;;;7368092;19;20022;-61
2023/05/03 12:21:15;;;;;;;3.75;2.53;;;20.60;47.10;;;;;;7372800;19;20857;-61
2023/05/03 12:23:41;;;;;;;4.00;2.22;;;20.80;45.90;;;;;;7368931;19;20059;-61
2023/05/03 12:26:08;;;;;;;4.28;1.77;;;21.00;44.60;;;;;;7369039;19;20019;-62
2023/05/03 12:28:34;;;;;;;12.65;7.40;;;21.00;44.00;;;;;;7369357;19;20041;-62
2023/05/03 12:31:01;;;;;;;5.65;2.97;;;21.10;45.10;;;;;;7369404;19;20019;-61
2023/05/03 12:33:27;;;;;;;6.60;1.75;;;21.20;45.10;;;;;;7368646;19;20022;-62
2023/05/03 12:35:54;;;;;;;5.72;1.90;;;20.80;45.20;;;;;;7367723;19;21866;-62
2023/05/03 12:38:20;;;;;;;4.38;1.98;;;21.30;44.40;;;;;;7369988;19;20033;-62
2023/05/03 12:40:47;;;;;;;3.22;1.70;;;21.40;43.80;;;;;;7370026;19;20022;-62
2023/05/03 12:43:13;;;;;;;10.13;5.82;;;21.00;42.80;;;;;;7368778;19;20030;-62
2023/05/03 12:45:41;;;;;;;7.63;3.33;;;20.50;43.20;;;;;;7368706;19;20018;-61
2023/05/03 12:48:07;;;;;;;8.43;4.65;;;20.90;44.60;;;;;;7368102;19;20018;-62
2023/05/03 12:50:34;;;;;;;6.30;2.63;;;20.90;44.10;;;;;;7368453;19;20048;-61
2023/05/03 12:53:00;;;;;;;5.53;1.58;;;21.20;44.60;;;;;;7371034;19;20108;-61
2023/05/03 12:55:26;;;;;;;6.75;2.28;;;21.40;43.80;;;;;;7364072;19;20022;-61
2023/05/03 12:57:53;;;;;;;9.50;3.72;;;21.80;43.60;;;;;;7370790;19;20472;-61